sensor_id;sensor_type;location;lat;lon;timestamp;temperature;humidity
7666;DHT22;3875;46.562;4.898;2023-04-03T00:01:15;9.20;94.90
7666;DHT22;3875;46.562;4.898;2023-04-03T00:03:41;9.20;94.90
7666;DHT22;3875;46.562;4.898;2023-04-03T00:06:07;9.20;95.00
7666;DHT22;3875;46.562;4.898;2023-04-03T00:08:34;9.20;95.10
7666;DHT22;3875;46.562;4.898;2023-04-03T00:11:01;9.10;95.10
7666;DHT22;3875;46.562;4.898;2023-04-03T00:13:27;9.10;95.30
7666;DHT22;3875;46.562;4.898;2023-04-03T00:15:53;9.00;95.40
7666;DHT22;3875;46.562;4.898;2023-04-03T00:18:18;9.00;95.70
7666;DHT22;3875;46.562;4.898;2023-04-03T00:20:44;9.00;95.90
7666;DHT22;3875;46.562;4.898;2023-04-03T00:23:10;8.90;96.00
7666;DHT22;3875;46.562;4.898;2023-04-03T00:25:36;8.90;96.20
7666;DHT22;3875;46.562;4.898;2023-04-03T00:28:02;9.00;96.20
7666;DHT22;3875;46.562;4.898;2023-04-03T00:30:28;9.00;96.20
7666;DHT22;3875;46.562;4.898;2023-04-03T00:32:54;9.00;96.30
7666;DHT22;3875;46.562;4.898;2023-04-03T00:35:21;8.90;96.40
7666;DHT22;3875;46.562;4.898;2023-04-03T00:37:47;9.00;96.60
7666;DHT22;3875;46.562;4.898;2023-04-03T00:40:14;8.90;96.70
7666;DHT22;3875;46.562;4.898;2023-04-03T00:42:41;9.00;96.70
7666;DHT22;3875;46.562;4.898;2023-04-03T00:47:36;8.90;97.10
7666;DHT22;3875;46.562;4.898;2023-04-03T00:50:03;8.90;97.10
7666;DHT22;3875;46.562;4.898;2023-04-03T00:52:30;8.90;97.20
7666;DHT22;3875;46.562;4.898;2023-04-03T00:55:03;8.90;97.20
7666;DHT22;3875;46.562;4.898;2023-04-03T00:57:30;8.90;97.20
7666;DHT22;3875;46.562;4.898;2023-04-03T01:00:03;9.00;97.30
7666;DHT22;3875;46.562;4.898;2023-04-03T01:02:30;9.00;97.30
7666;DHT22;3875;46.562;4.898;2023-04-03T01:04:55;9.00;97.30
7666;DHT22;3875;46.562;4.898;2023-04-03T01:07:24;9.00;97.30
7666;DHT22;3875;46.562;4.898;2023-04-03T01:09:57;9.00;97.40
7666;DHT22;3875;46.562;4.898;2023-04-03T01:12:25;9.00;97.50
7666;DHT22;3875;46.562;4.898;2023-04-03T01:14:57;9.00;97.60
7666;DHT22;3875;46.562;4.898;2023-04-03T01:17:42;9.00;97.70
7666;DHT22;3875;46.562;4.898;2023-04-03T01:28:10;8.90;98.10
7666;DHT22;3875;46.562;4.898;2023-04-03T01:30:46;9.00;98.10
7666;DHT22;3875;46.562;4.898;2023-04-03T01:33:13;9.00;98.20
7666;DHT22;3875;46.562;4.898;2023-04-03T01:35:38;8.90;98.30
7666;DHT22;3875;46.562;4.898;2023-04-03T01:38:04;9.00;98.50
7666;DHT22;3875;46.562;4.898;2023-04-03T01:40:30;8.90;98.60
7666;DHT22;3875;46.562;4.898;2023-04-03T01:42:55;8.90;98.60
7666;DHT22;3875;46.562;4.898;2023-04-03T01:45:21;8.90;98.60
7666;DHT22;3875;46.562;4.898;2023-04-03T01:47:47;9.00;98.60
7666;DHT22;3875;46.562;4.898;2023-04-03T01:50:12;9.00;98.60
7666;DHT22;3875;46.562;4.898;2023-04-03T01:52:38;9.00;98.60
7666;DHT22;3875;46.562;4.898;2023-04-03T01:55:04;9.00;98.60
7666;DHT22;3875;46.562;4.898;2023-04-03T01:57:30;9.00;98.60
7666;DHT22;3875;46.562;4.898;2023-04-03T01:59:55;9.00;98.60
7666;DHT22;3875;46.562;4.898;2023-04-03T02:02:21;9.00;98.60
7666;DHT22;3875;46.562;4.898;2023-04-03T02:04:47;9.00;98.60
7666;DHT22;3875;46.562;4.898;2023-04-03T02:07:12;9.00;98.60
7666;DHT22;3875;46.562;4.898;2023-04-03T02:09:38;9.00;98.60
7666;DHT22;3875;46.562;4.898;2023-04-03T02:12:03;9.00;98.60
7666;DHT22;3875;46.562;4.898;2023-04-03T02:14:29;9.00;98.60
7666;DHT22;3875;46.562;4.898;2023-04-03T02:16:55;9.10;98.60
7666;DHT22;3875;46.562;4.898;2023-04-03T02:19:21;9.10;98.60
7666;DHT22;3875;46.562;4.898;2023-04-03T02:21:46;9.10;98.60
7666;DHT22;3875;46.562;4.898;2023-04-03T02:24:12;9.20;98.60
7666;DHT22;3875;46.562;4.898;2023-04-03T02:26:38;9.20;98.60
7666;DHT22;3875;46.562;4.898;2023-04-03T02:29:03;9.20;98.60
7666;DHT22;3875;46.562;4.898;2023-04-03T02:31:29;9.20;98.60
7666;DHT22;3875;46.562;4.898;2023-04-03T02:33:54;9.20;98.60
7666;DHT22;3875;46.562;4.898;2023-04-03T02:36:20;9.20;98.60
7666;DHT22;3875;46.562;4.898;2023-04-03T02:38:46;9.20;98.60
7666;DHT22;3875;46.562;4.898;2023-04-03T02:41:12;9.20;98.60
7666;DHT22;3875;46.562;4.898;2023-04-03T02:43:38;9.20;98.60
7666;DHT22;3875;46.562;4.898;2023-04-03T02:46:05;9.10;98.60
7666;DHT22;3875;46.562;4.898;2023-04-03T02:48:31;9.10;98.60
7666;DHT22;3875;46.562;4.898;2023-04-03T02:50:57;9.10;98.60
7666;DHT22;3875;46.562;4.898;2023-04-03T02:53:23;9.10;98.60
7666;DHT22;3875;46.562;4.898;2023-04-03T02:55:48;9.10;98.60
7666;DHT22;3875;46.562;4.898;2023-04-03T02:58:14;9.10;98.60
7666;DHT22;3875;46.562;4.898;2023-04-03T03:00:40;9.10;98.60
7666;DHT22;3875;46.562;4.898;2023-04-03T03:03:06;9.00;98.60
7666;DHT22;3875;46.562;4.898;2023-04-03T03:05:32;9.00;98.60
7666;DHT22;3875;46.562;4.898;2023-04-03T03:07:58;9.00;98.60
7666;DHT22;3875;46.562;4.898;2023-04-03T03:10:23;9.00;98.60
7666;DHT22;3875;46.562;4.898;2023-04-03T03:12:49;8.90;98.60
7666;DHT22;3875;46.562;4.898;2023-04-03T03:15:15;8.90;98.60
7666;DHT22;3875;46.562;4.898;2023-04-03T03:17:40;8.90;98.60
7666;DHT22;3875;46.562;4.898;2023-04-03T03:20:07;8.90;98.60
7666;DHT22;3875;46.562;4.898;2023-04-03T03:22:33;8.90;98.60
7666;DHT22;3875;46.562;4.898;2023-04-03T03:24:59;8.90;98.60
7666;DHT22;3875;46.562;4.898;2023-04-03T03:27:26;8.80;98.60
7666;DHT22;3875;46.562;4.898;2023-04-03T03:29:52;8.80;98.60
7666;DHT22;3875;46.562;4.898;2023-04-03T03:32:17;8.80;98.60
7666;DHT22;3875;46.562;4.898;2023-04-03T03:34:43;8.80;98.60
7666;DHT22;3875;46.562;4.898;2023-04-03T03:37:09;8.70;98.60
7666;DHT22;3875;46.562;4.898;2023-04-03T03:39:34;8.70;98.60
7666;DHT22;3875;46.562;4.898;2023-04-03T03:42:00;8.60;98.60
7666;DHT22;3875;46.562;4.898;2023-04-03T03:44:26;8.60;98.60
7666;DHT22;3875;46.562;4.898;2023-04-03T03:46:53;8.60;98.60
7666;DHT22;3875;46.562;4.898;2023-04-03T03:49:18;8.50;98.60
7666;DHT22;3875;46.562;4.898;2023-04-03T03:51:44;8.50;98.60
7666;DHT22;3875;46.562;4.898;2023-04-03T03:54:10;8.50;98.60
7666;DHT22;3875;46.562;4.898;2023-04-03T03:56:36;8.40;98.60
7666;DHT22;3875;46.562;4.898;2023-04-03T03:59:02;8.40;98.60
7666;DHT22;3875;46.562;4.898;2023-04-03T04:01:28;8.40;98.60
7666;DHT22;3875;46.562;4.898;2023-04-03T04:03:54;8.40;98.60
7666;DHT22;3875;46.562;4.898;2023-04-03T04:06:20;8.40;98.60
7666;DHT22;3875;46.562;4.898;2023-04-03T04:08:46;8.40;98.60
7666;DHT22;3875;46.562;4.898;2023-04-03T04:11:12;8.30;98.60
7666;DHT22;3875;46.562;4.898;2023-04-03T04:13:38;8.30;98.60
7666;DHT22;3875;46.562;4.898;2023-04-03T04:16:04;8.30;98.60
7666;DHT22;3875;46.562;4.898;2023-04-03T04:18:30;8.30;98.60
7666;DHT22;3875;46.562;4.898;2023-04-03T04:20:56;8.30;98.60
7666;DHT22;3875;46.562;4.898;2023-04-03T04:23:21;8.30;98.60
7666;DHT22;3875;46.562;4.898;2023-04-03T04:25:48;8.30;98.60
7666;DHT22;3875;46.562;4.898;2023-04-03T04:28:15;8.30;98.60
7666;DHT22;3875;46.562;4.898;2023-04-03T04:30:41;8.30;98.60
7666;DHT22;3875;46.562;4.898;2023-04-03T04:33:07;8.30;98.60
7666;DHT22;3875;46.562;4.898;2023-04-03T04:35:33;8.30;98.60
7666;DHT22;3875;46.562;4.898;2023-04-03T04:37:59;8.30;98.60
7666;DHT22;3875;46.562;4.898;2023-04-03T04:40:26;8.30;98.60
7666;DHT22;3875;46.562;4.898;2023-04-03T04:42:51;8.20;98.60
7666;DHT22;3875;46.562;4.898;2023-04-03T04:45:17;8.20;98.60
7666;DHT22;3875;46.562;4.898;2023-04-03T04:47:43;8.20;98.60
7666;DHT22;3875;46.562;4.898;2023-04-03T04:50:10;8.20;98.60
7666;DHT22;3875;46.562;4.898;2023-04-03T04:52:37;8.20;98.60
7666;DHT22;3875;46.562;4.898;2023-04-03T04:55:03;8.10;98.60
7666;DHT22;3875;46.562;4.898;2023-04-03T04:57:28;8.10;98.60
7666;DHT22;3875;46.562;4.898;2023-04-03T04:59:54;8.00;98.60
7666;DHT22;3875;46.562;4.898;2023-04-03T05:02:19;7.90;98.60
7666;DHT22;3875;46.562;4.898;2023-04-03T05:04:45;7.90;98.60
7666;DHT22;3875;46.562;4.898;2023-04-03T05:07:11;7.80;98.60
7666;DHT22;3875;46.562;4.898;2023-04-03T05:09:36;7.80;98.60
7666;DHT22;3875;46.562;4.898;2023-04-03T05:12:03;7.80;98.60
7666;DHT22;3875;46.562;4.898;2023-04-03T05:14:28;7.80;98.60
7666;DHT22;3875;46.562;4.898;2023-04-03T05:16:54;7.70;98.60
7666;DHT22;3875;46.562;4.898;2023-04-03T05:19:20;7.70;98.60
7666;DHT22;3875;46.562;4.898;2023-04-03T05:21:47;7.60;98.60
7666;DHT22;3875;46.562;4.898;2023-04-03T05:24:13;7.60;98.60
7666;DHT22;3875;46.562;4.898;2023-04-03T05:26:39;7.60;98.60
7666;DHT22;3875;46.562;4.898;2023-04-03T05:29:05;7.60;98.60
7666;DHT22;3875;46.562;4.898;2023-04-03T05:31:30;7.60;98.60
7666;DHT22;3875;46.562;4.898;2023-04-03T05:33:56;7.60;98.60
7666;DHT22;3875;46.562;4.898;2023-04-03T05:36:22;7.60;98.60
7666;DHT22;3875;46.562;4.898;2023-04-03T05:38:48;7.60;98.60
7666;DHT22;3875;46.562;4.898;2023-04-03T05:41:15;7.70;98.60
7666;DHT22;3875;46.562;4.898;2023-04-03T05:43:41;7.70;98.60
7666;DHT22;3875;46.562;4.898;2023-04-03T05:46:17;7.70;98.60
7666;DHT22;3875;46.562;4.898;2023-04-03T05:48:44;7.60;98.60
7666;DHT22;3875;46.562;4.898;2023-04-03T05:51:18;7.60;98.60
7666;DHT22;3875;46.562;4.898;2023-04-03T05:53:45;7.60;98.60
7666;DHT22;3875;46.562;4.898;2023-04-03T05:56:12;7.60;98.60
7666;DHT22;3875;46.562;4.898;2023-04-03T05:58:38;7.60;98.60
7666;DHT22;3875;46.562;4.898;2023-04-03T06:01:04;7.70;98.60
7666;DHT22;3875;46.562;4.898;2023-04-03T06:03:31;7.70;98.60
7666;DHT22;3875;46.562;4.898;2023-04-03T06:05:57;7.70;98.60
7666;DHT22;3875;46.562;4.898;2023-04-03T06:08:22;7.60;98.60
7666;DHT22;3875;46.562;4.898;2023-04-03T06:10:49;7.60;98.60
7666;DHT22;3875;46.562;4.898;2023-04-03T06:13:15;7.60;98.60
7666;DHT22;3875;46.562;4.898;2023-04-03T06:15:41;7.60;98.60
7666;DHT22;3875;46.562;4.898;2023-04-03T06:18:07;7.60;98.60
7666;DHT22;3875;46.562;4.898;2023-04-03T06:20:33;7.60;98.60
7666;DHT22;3875;46.562;4.898;2023-04-03T06:22:59;7.50;98.60
7666;DHT22;3875;46.562;4.898;2023-04-03T06:25:25;7.50;98.60
7666;DHT22;3875;46.562;4.898;2023-04-03T06:27:52;7.60;98.60
7666;DHT22;3875;46.562;4.898;2023-04-03T06:30:17;7.60;98.60
7666;DHT22;3875;46.562;4.898;2023-04-03T06:32:43;7.70;98.60
7666;DHT22;3875;46.562;4.898;2023-04-03T06:35:09;7.60;98.60
7666;DHT22;3875;46.562;4.898;2023-04-03T06:37:35;7.60;98.60
7666;DHT22;3875;46.562;4.898;2023-04-03T06:40:01;7.60;98.50
7666;DHT22;3875;46.562;4.898;2023-04-03T06:42:28;7.60;98.60
7666;DHT22;3875;46.562;4.898;2023-04-03T06:44:53;7.60;98.40
7666;DHT22;3875;46.562;4.898;2023-04-03T06:47:19;7.60;98.10
7666;DHT22;3875;46.562;4.898;2023-04-03T06:49:45;7.50;98.10
7666;DHT22;3875;46.562;4.898;2023-04-03T06:52:11;7.50;97.90
7666;DHT22;3875;46.562;4.898;2023-04-03T06:54:40;7.50;98.10
7666;DHT22;3875;46.562;4.898;2023-04-03T06:57:07;7.50;97.80
7666;DHT22;3875;46.562;4.898;2023-04-03T06:59:33;7.40;97.70
7666;DHT22;3875;46.562;4.898;2023-04-03T07:01:59;7.30;97.90
7666;DHT22;3875;46.562;4.898;2023-04-03T07:04:25;7.30;97.80
7666;DHT22;3875;46.562;4.898;2023-04-03T07:06:51;7.30;97.90
7666;DHT22;3875;46.562;4.898;2023-04-03T07:09:18;7.30;97.80
7666;DHT22;3875;46.562;4.898;2023-04-03T07:11:44;7.30;97.70
7666;DHT22;3875;46.562;4.898;2023-04-03T07:14:09;7.30;97.80
7666;DHT22;3875;46.562;4.898;2023-04-03T07:16:35;7.30;97.90
7666;DHT22;3875;46.562;4.898;2023-04-03T07:19:02;7.40;97.80
7666;DHT22;3875;46.562;4.898;2023-04-03T07:21:28;7.40;97.50
7666;DHT22;3875;46.562;4.898;2023-04-03T07:23:55;7.40;97.20
7666;DHT22;3875;46.562;4.898;2023-04-03T07:26:21;7.40;97.20
7666;DHT22;3875;46.562;4.898;2023-04-03T07:28:48;7.40;96.60
7666;DHT22;3875;46.562;4.898;2023-04-03T07:31:15;7.30;96.80
7666;DHT22;3875;46.562;4.898;2023-04-03T07:33:41;7.30;96.40
7666;DHT22;3875;46.562;4.898;2023-04-03T07:36:07;7.30;96.60
7666;DHT22;3875;46.562;4.898;2023-04-03T07:38:34;7.30;96.80
7666;DHT22;3875;46.562;4.898;2023-04-03T07:41:01;7.40;96.20
7666;DHT22;3875;46.562;4.898;2023-04-03T07:43:26;7.30;95.90
7666;DHT22;3875;46.562;4.898;2023-04-03T07:45:52;7.20;96.30
7666;DHT22;3875;46.562;4.898;2023-04-03T07:48:21;7.30;96.50
7666;DHT22;3875;46.562;4.898;2023-04-03T07:50:47;7.30;96.60
7666;DHT22;3875;46.562;4.898;2023-04-03T07:53:13;7.30;95.80
7666;DHT22;3875;46.562;4.898;2023-04-03T07:55:39;7.30;95.80
7666;DHT22;3875;46.562;4.898;2023-04-03T07:58:12;7.30;95.60
7666;DHT22;3875;46.562;4.898;2023-04-03T08:00:40;7.30;95.60
7666;DHT22;3875;46.562;4.898;2023-04-03T08:03:07;7.40;95.80
7666;DHT22;3875;46.562;4.898;2023-04-03T08:05:37;7.40;95.70
7666;DHT22;3875;46.562;4.898;2023-04-03T08:08:04;7.50;95.60
7666;DHT22;3875;46.562;4.898;2023-04-03T08:10:31;7.60;95.10
7666;DHT22;3875;46.562;4.898;2023-04-03T08:12:57;7.60;95.20
7666;DHT22;3875;46.562;4.898;2023-04-03T08:15:23;7.60;94.50
7666;DHT22;3875;46.562;4.898;2023-04-03T08:17:50;7.60;94.80
7666;DHT22;3875;46.562;4.898;2023-04-03T08:20:16;7.60;94.80
7666;DHT22;3875;46.562;4.898;2023-04-03T08:22:41;7.70;94.80
7666;DHT22;3875;46.562;4.898;2023-04-03T08:25:07;7.70;94.20
7666;DHT22;3875;46.562;4.898;2023-04-03T08:27:33;7.70;93.60
7666;DHT22;3875;46.562;4.898;2023-04-03T08:29:59;7.70;93.80
7666;DHT22;3875;46.562;4.898;2023-04-03T08:32:26;7.70;93.80
7666;DHT22;3875;46.562;4.898;2023-04-03T08:34:52;7.70;93.30
7666;DHT22;3875;46.562;4.898;2023-04-03T08:37:18;7.80;93.20
7666;DHT22;3875;46.562;4.898;2023-04-03T08:39:44;7.80;93.40
7666;DHT22;3875;46.562;4.898;2023-04-03T08:45:33;7.80;91.60
7666;DHT22;3875;46.562;4.898;2023-04-03T08:48:04;7.70;91.90
7666;DHT22;3875;46.562;4.898;2023-04-03T08:50:59;7.70;91.90
7666;DHT22;3875;46.562;4.898;2023-04-03T08:53:29;7.60;91.30
7666;DHT22;3875;46.562;4.898;2023-04-03T08:55:58;7.60;91.80
7666;DHT22;3875;46.562;4.898;2023-04-03T08:58:30;7.70;92.60
7666;DHT22;3875;46.562;4.898;2023-04-03T09:01:02;7.80;92.30
7666;DHT22;3875;46.562;4.898;2023-04-03T09:03:33;7.90;92.60
7666;DHT22;3875;46.562;4.898;2023-04-03T09:06:07;8.00;91.10
7666;DHT22;3875;46.562;4.898;2023-04-03T09:08:40;8.00;90.50
7666;DHT22;3875;46.562;4.898;2023-04-03T09:17:00;8.00;89.90
7666;DHT22;3875;46.562;4.898;2023-04-03T09:21:59;8.20;90.70
7666;DHT22;3875;46.562;4.898;2023-04-03T09:24:26;8.10;89.00
7666;DHT22;3875;46.562;4.898;2023-04-03T09:27:03;8.10;89.00
7666;DHT22;3875;46.562;4.898;2023-04-03T09:29:30;8.00;89.00
7666;DHT22;3875;46.562;4.898;2023-04-03T09:32:00;8.00;89.50
7666;DHT22;3875;46.562;4.898;2023-04-03T09:34:36;8.10;89.40
7666;DHT22;3875;46.562;4.898;2023-04-03T09:37:04;8.20;88.90
7666;DHT22;3875;46.562;4.898;2023-04-03T09:39:53;8.30;88.70
7666;DHT22;3875;46.562;4.898;2023-04-03T09:42:25;8.30;88.90
7666;DHT22;3875;46.562;4.898;2023-04-03T09:45:21;8.30;88.70
7666;DHT22;3875;46.562;4.898;2023-04-03T09:47:48;8.30;87.60
7666;DHT22;3875;46.562;4.898;2023-04-03T09:52:45;8.40;88.50
7666;DHT22;3875;46.562;4.898;2023-04-03T09:57:41;8.60;87.40
7666;DHT22;3875;46.562;4.898;2023-04-03T10:00:23;8.60;87.70
7666;DHT22;3875;46.562;4.898;2023-04-03T10:02:53;8.60;86.80
7666;DHT22;3875;46.562;4.898;2023-04-03T10:05:32;8.70;87.70
7666;DHT22;3875;46.562;4.898;2023-04-03T10:10:47;9.00;85.70
7666;DHT22;3875;46.562;4.898;2023-04-03T10:13:18;8.90;85.70
7666;DHT22;3875;46.562;4.898;2023-04-03T10:15:56;9.00;86.80
7666;DHT22;3875;46.562;4.898;2023-04-03T10:20:50;9.60;85.90
7666;DHT22;3875;46.562;4.898;2023-04-03T10:34:43;9.40;84.50
7666;DHT22;3875;46.562;4.898;2023-04-03T10:37:24;9.40;84.70
7666;DHT22;3875;46.562;4.898;2023-04-03T10:43:23;9.10;84.70
7666;DHT22;3875;46.562;4.898;2023-04-03T10:45:53;9.20;85.00
7666;DHT22;3875;46.562;4.898;2023-04-03T10:51:10;9.40;84.90
7666;DHT22;3875;46.562;4.898;2023-04-03T11:02:05;9.50;85.00
7666;DHT22;3875;46.562;4.898;2023-04-03T11:04:35;9.50;85.10
7666;DHT22;3875;46.562;4.898;2023-04-03T11:07:22;9.50;84.60
7666;DHT22;3875;46.562;4.898;2023-04-03T11:09:54;9.50;85.10
7666;DHT22;3875;46.562;4.898;2023-04-03T11:12:26;9.60;85.40
7666;DHT22;3875;46.562;4.898;2023-04-03T11:14:55;9.60;85.00
7666;DHT22;3875;46.562;4.898;2023-04-03T11:17:38;9.70;85.20
7666;DHT22;3875;46.562;4.898;2023-04-03T11:22:48;10.10;84.50
7666;DHT22;3875;46.562;4.898;2023-04-03T11:25:23;10.00;84.40
7666;DHT22;3875;46.562;4.898;2023-04-03T11:27:58;10.10;84.50
7666;DHT22;3875;46.562;4.898;2023-04-03T11:36:47;9.90;85.00
7666;DHT22;3875;46.562;4.898;2023-04-03T11:39:28;10.00;84.30
7666;DHT22;3875;46.562;4.898;2023-04-03T11:41:55;10.00;84.80
7666;DHT22;3875;46.562;4.898;2023-04-03T11:44:38;9.90;85.00
7666;DHT22;3875;46.562;4.898;2023-04-03T11:47:09;9.90;85.10
7666;DHT22;3875;46.562;4.898;2023-04-03T11:49:59;10.00;85.00
7666;DHT22;3875;46.562;4.898;2023-04-03T12:00:56;9.90;84.80
7666;DHT22;3875;46.562;4.898;2023-04-03T12:08:45;10.40;84.20
7666;DHT22;3875;46.562;4.898;2023-04-03T12:16:29;10.40;84.70
7666;DHT22;3875;46.562;4.898;2023-04-03T12:18:56;10.50;84.40
7666;DHT22;3875;46.562;4.898;2023-04-03T12:32:32;10.90;82.30
7666;DHT22;3875;46.562;4.898;2023-04-03T12:40:37;10.90;81.30
7666;DHT22;3875;46.562;4.898;2023-04-03T12:43:35;10.70;81.50
7666;DHT22;3875;46.562;4.898;2023-04-03T12:51:14;10.40;81.70
7666;DHT22;3875;46.562;4.898;2023-04-03T12:53:41;10.20;82.40
7666;DHT22;3875;46.562;4.898;2023-04-03T12:56:30;10.10;82.70
7666;DHT22;3875;46.562;4.898;2023-04-03T12:59:16;10.10;82.80
7666;DHT22;3875;46.562;4.898;2023-04-03T13:01:44;10.20;82.80
7666;DHT22;3875;46.562;4.898;2023-04-03T13:04:18;10.40;83.30
7666;DHT22;3875;46.562;4.898;2023-04-03T13:06:44;10.20;81.40
7666;DHT22;3875;46.562;4.898;2023-04-03T13:09:36;10.30;83.10
7666;DHT22;3875;46.562;4.898;2023-04-03T13:12:10;10.30;82.10
7666;DHT22;3875;46.562;4.898;2023-04-03T13:14:37;10.20;81.40
7666;DHT22;3875;46.562;4.898;2023-04-03T13:17:14;10.20;81.60
7666;DHT22;3875;46.562;4.898;2023-04-03T13:19:43;10.50;82.10
7666;DHT22;3875;46.562;4.898;2023-04-03T13:22:39;10.80;80.60
7666;DHT22;3875;46.562;4.898;2023-04-03T13:25:13;10.80;80.50
7666;DHT22;3875;46.562;4.898;2023-04-03T13:27:40;11.10;79.70
7666;DHT22;3875;46.562;4.898;2023-04-03T13:30:30;11.50;80.00
7666;DHT22;3875;46.562;4.898;2023-04-03T13:32:58;12.00;78.70
7666;DHT22;3875;46.562;4.898;2023-04-03T13:35:39;12.10;76.40
7666;DHT22;3875;46.562;4.898;2023-04-03T13:40:49;11.80;77.20
7666;DHT22;3875;46.562;4.898;2023-04-03T13:43:27;11.50;78.10
7666;DHT22;3875;46.562;4.898;2023-04-03T13:48:46;11.90;78.80
7666;DHT22;3875;46.562;4.898;2023-04-03T13:53:44;11.30;78.50
7666;DHT22;3875;46.562;4.898;2023-04-03T13:56:35;11.30;79.10
7666;DHT22;3875;46.562;4.898;2023-04-03T14:04:20;11.60;77.80
7666;DHT22;3875;46.562;4.898;2023-04-03T14:06:47;11.50;77.90
7666;DHT22;3875;46.562;4.898;2023-04-03T14:09:16;11.70;77.90
7666;DHT22;3875;46.562;4.898;2023-04-03T14:11:42;12.00;77.50
7666;DHT22;3875;46.562;4.898;2023-04-03T14:14:21;12.10;77.10
7666;DHT22;3875;46.562;4.898;2023-04-03T14:16:51;11.90;75.80
7666;DHT22;3875;46.562;4.898;2023-04-03T14:19:24;11.60;76.30
7666;DHT22;3875;46.562;4.898;2023-04-03T14:21:51;11.40;76.80
7666;DHT22;3875;46.562;4.898;2023-04-03T14:24:18;11.40;76.30
7666;DHT22;3875;46.562;4.898;2023-04-03T14:26:45;11.20;76.40
7666;DHT22;3875;46.562;4.898;2023-04-03T14:29:11;11.00;76.60
7666;DHT22;3875;46.562;4.898;2023-04-03T14:31:38;10.90;76.40
7666;DHT22;3875;46.562;4.898;2023-04-03T14:34:04;11.00;77.10
7666;DHT22;3875;46.562;4.898;2023-04-03T14:36:30;10.90;77.30
7666;DHT22;3875;46.562;4.898;2023-04-03T14:38:57;10.90;77.00
7666;DHT22;3875;46.562;4.898;2023-04-03T14:41:24;11.00;76.90
7666;DHT22;3875;46.562;4.898;2023-04-03T14:43:50;11.30;76.30
7666;DHT22;3875;46.562;4.898;2023-04-03T14:46:17;11.40;76.80
7666;DHT22;3875;46.562;4.898;2023-04-03T14:48:44;11.40;76.40
7666;DHT22;3875;46.562;4.898;2023-04-03T14:51:14;11.30;77.30
7666;DHT22;3875;46.562;4.898;2023-04-03T14:53:41;11.20;77.00
7666;DHT22;3875;46.562;4.898;2023-04-03T14:56:25;11.00;76.90
7666;DHT22;3875;46.562;4.898;2023-04-03T14:58:59;10.90;76.90
7666;DHT22;3875;46.562;4.898;2023-04-03T15:01:26;10.70;76.40
7666;DHT22;3875;46.562;4.898;2023-04-03T15:03:52;10.40;74.50
7666;DHT22;3875;46.562;4.898;2023-04-03T15:06:18;10.40;74.60
7666;DHT22;3875;46.562;4.898;2023-04-03T15:08:45;10.60;74.40
7666;DHT22;3875;46.562;4.898;2023-04-03T15:11:12;11.00;73.80
7666;DHT22;3875;46.562;4.898;2023-04-03T15:13:38;11.10;73.00
7666;DHT22;3875;46.562;4.898;2023-04-03T15:16:06;11.20;74.30
7666;DHT22;3875;46.562;4.898;2023-04-03T15:18:38;11.00;74.00
7666;DHT22;3875;46.562;4.898;2023-04-03T15:21:04;10.90;74.40
7666;DHT22;3875;46.562;4.898;2023-04-03T15:23:30;11.00;74.80
7666;DHT22;3875;46.562;4.898;2023-04-03T15:25:56;11.10;74.60
7666;DHT22;3875;46.562;4.898;2023-04-03T15:28:36;11.00;74.30
7666;DHT22;3875;46.562;4.898;2023-04-03T15:31:03;10.90;74.50
7666;DHT22;3875;46.562;4.898;2023-04-03T15:33:30;11.00;75.90
7666;DHT22;3875;46.562;4.898;2023-04-03T15:35:56;11.00;75.70
7666;DHT22;3875;46.562;4.898;2023-04-03T15:38:22;11.00;76.60
7666;DHT22;3875;46.562;4.898;2023-04-03T15:40:47;10.90;75.40
7666;DHT22;3875;46.562;4.898;2023-04-03T15:43:14;10.90;76.00
7666;DHT22;3875;46.562;4.898;2023-04-03T15:45:40;11.00;76.00
7666;DHT22;3875;46.562;4.898;2023-04-03T15:48:08;10.90;75.20
7666;DHT22;3875;46.562;4.898;2023-04-03T15:50:34;10.90;75.10
7666;DHT22;3875;46.562;4.898;2023-04-03T15:53:00;10.90;75.10
7666;DHT22;3875;46.562;4.898;2023-04-03T15:55:30;11.10;74.70
7666;DHT22;3875;46.562;4.898;2023-04-03T15:57:56;11.00;74.80
7666;DHT22;3875;46.562;4.898;2023-04-03T16:00:23;10.90;74.70
7666;DHT22;3875;46.562;4.898;2023-04-03T16:02:52;10.90;75.70
7666;DHT22;3875;46.562;4.898;2023-04-03T16:05:19;10.80;75.30
7666;DHT22;3875;46.562;4.898;2023-04-03T16:07:45;10.70;75.60
7666;DHT22;3875;46.562;4.898;2023-04-03T16:10:13;10.80;73.90
7666;DHT22;3875;46.562;4.898;2023-04-03T16:12:39;10.90;74.00
7666;DHT22;3875;46.562;4.898;2023-04-03T16:15:06;10.90;74.30
7666;DHT22;3875;46.562;4.898;2023-04-03T16:17:33;11.00;74.90
7666;DHT22;3875;46.562;4.898;2023-04-03T16:19:59;11.00;74.90
7666;DHT22;3875;46.562;4.898;2023-04-03T16:22:27;10.90;74.80
7666;DHT22;3875;46.562;4.898;2023-04-03T16:24:54;10.80;76.00
7666;DHT22;3875;46.562;4.898;2023-04-03T16:27:21;10.90;75.20
7666;DHT22;3875;46.562;4.898;2023-04-03T16:29:46;11.10;73.90
7666;DHT22;3875;46.562;4.898;2023-04-03T16:32:13;11.40;73.40
7666;DHT22;3875;46.562;4.898;2023-04-03T16:34:39;11.70;72.20
7666;DHT22;3875;46.562;4.898;2023-04-03T16:37:06;11.80;71.50
7666;DHT22;3875;46.562;4.898;2023-04-03T16:39:34;11.50;70.90
7666;DHT22;3875;46.562;4.898;2023-04-03T16:42:00;11.20;71.90
7666;DHT22;3875;46.562;4.898;2023-04-03T16:44:26;10.90;72.80
7666;DHT22;3875;46.562;4.898;2023-04-03T16:46:51;10.80;71.70
7666;DHT22;3875;46.562;4.898;2023-04-03T16:49:17;10.70;71.20
7666;DHT22;3875;46.562;4.898;2023-04-03T16:51:43;10.40;71.40
7666;DHT22;3875;46.562;4.898;2023-04-03T16:54:09;10.20;72.30
7666;DHT22;3875;46.562;4.898;2023-04-03T16:56:37;10.10;73.40
7666;DHT22;3875;46.562;4.898;2023-04-03T16:59:02;10.00;73.30
7666;DHT22;3875;46.562;4.898;2023-04-03T17:01:28;9.90;74.40
7666;DHT22;3875;46.562;4.898;2023-04-03T17:03:54;9.90;74.40
7666;DHT22;3875;46.562;4.898;2023-04-03T17:06:21;9.90;75.00
7666;DHT22;3875;46.562;4.898;2023-04-03T17:08:49;9.80;75.20
7666;DHT22;3875;46.562;4.898;2023-04-03T17:11:16;9.70;75.10
7666;DHT22;3875;46.562;4.898;2023-04-03T17:13:42;9.70;75.60
7666;DHT22;3875;46.562;4.898;2023-04-03T17:16:11;9.60;75.10
7666;DHT22;3875;46.562;4.898;2023-04-03T17:18:38;9.50;75.30
7666;DHT22;3875;46.562;4.898;2023-04-03T17:21:04;9.40;75.30
7666;DHT22;3875;46.562;4.898;2023-04-03T17:23:30;9.40;75.30
7666;DHT22;3875;46.562;4.898;2023-04-03T17:25:59;9.40;75.50
7666;DHT22;3875;46.562;4.898;2023-04-03T17:28:25;9.30;75.20
7666;DHT22;3875;46.562;4.898;2023-04-03T17:30:57;9.30;75.50
7666;DHT22;3875;46.562;4.898;2023-04-03T17:33:24;9.20;75.60
7666;DHT22;3875;46.562;4.898;2023-04-03T17:35:50;9.20;75.10
7666;DHT22;3875;46.562;4.898;2023-04-03T17:38:16;9.10;75.40
7666;DHT22;3875;46.562;4.898;2023-04-03T17:40:41;9.10;75.10
7666;DHT22;3875;46.562;4.898;2023-04-03T17:43:09;9.00;74.80
7666;DHT22;3875;46.562;4.898;2023-04-03T17:45:36;8.90;75.20
7666;DHT22;3875;46.562;4.898;2023-04-03T17:48:02;8.90;75.40
7666;DHT22;3875;46.562;4.898;2023-04-03T17:50:28;8.80;75.40
7666;DHT22;3875;46.562;4.898;2023-04-03T17:52:54;8.80;75.50
7666;DHT22;3875;46.562;4.898;2023-04-03T17:55:20;8.70;75.70
7666;DHT22;3875;46.562;4.898;2023-04-03T17:57:45;8.60;76.10
7666;DHT22;3875;46.562;4.898;2023-04-03T18:00:11;8.60;76.20
7666;DHT22;3875;46.562;4.898;2023-04-03T18:02:37;8.50;76.30
7666;DHT22;3875;46.562;4.898;2023-04-03T18:05:03;8.50;76.20
7666;DHT22;3875;46.562;4.898;2023-04-03T18:07:29;8.40;76.00
7666;DHT22;3875;46.562;4.898;2023-04-03T18:09:55;8.40;76.30
7666;DHT22;3875;46.562;4.898;2023-04-03T18:12:22;8.40;75.20
7666;DHT22;3875;46.562;4.898;2023-04-03T18:14:49;8.40;74.70
7666;DHT22;3875;46.562;4.898;2023-04-03T18:17:14;8.30;75.00
7666;DHT22;3875;46.562;4.898;2023-04-03T18:19:40;8.30;74.90
7666;DHT22;3875;46.562;4.898;2023-04-03T18:22:13;8.30;75.10